WETTERDATEN

GESTERN
Time Temp. Taup. r.Fe. Windrich Windstärke Windböe Druck 1h Prec. 24h Prec.
00:02 2.6 2.6 100 246 1.9 3.1 1008.2 0.5050 0.1000
00:13 2.5 2.5 100 244 1.7 2.5 1008.2 0.5050 0.2000
00:33 2.6 2.6 100 254 2.5 4.2 1008.4 0.6060 0.3000
00:43 2.6 2.6 100 260 2.8 4.2 1008.2 0.7070 0.5000
00:53 2.7 2.7 100 252 2.2 3.1 1008.3 0.8080 0.7000
01:03 2.7 2.7 100 252 2.8 4.4 1008.3 0.7070 0.8000
01:13 2.7 2.7 100 247 2.2 3.1 1008.2 0.7070 0.9000
01:24 2.6 2.6 100 249 1.7 2.8 1008.2 0.8080 1.0000
01:34 2.6 2.6 100 251 1.9 2.8 1008.1 0.8080 1.1000
01:43 2.6 2.6 100 252 2.2 3.1 1008 0.7070 1.2000
01:54 2.5 2.5 100 248 1.7 2.8 1008 0.5050 1.2000
02:04 2.6 2.6 100 253 1.9 3.1 1007.7 0.5050 1.3000
02:14 2.6 2.6 100 250 2.2 3.3 1007.5 0.5050 1.4000
02:23 2.6 2.6 100 249 1.7 2.8 1007.7 0.5050 1.5000
02:34 2.6 2.6 100 251 2.5 4.2 1007.6 0.4040 1.5000
02:44 2.6 2.6 100 248 1.9 3.1 1007.6 0.4040 1.6000
02:54 2.5 2.5 100 253 2.2 3.3 1007.5 0.5050 1.7000
03:04 2.6 2.6 100 249 1.7 3.1 1007.5 0.6060 1.9000
03:14 2.5 2.5 100 248 1.9 2.5 1007.4 0.6060 2.0000
03:24 2.5 2.5 100 249 1.9 3.1 1007.4 0.6060 2.1000
03:34 2.5 2.5 100 248 1.7 2.8 1007.5 0.7070 2.2000
03:45 2.5 2.5 100 251 1.9 3.1 1007.6 0.7070 2.3000
03:55 2.5 2.5 100 249 1.7 2.5 1007.5 0.6060 2.3000
04:05 2.5 2.5 100 254 1.9 2.8 1007.4 0.5050 2.4000
04:15 2.5 2.5 100 252 1.7 2.8 1007.4 0.5050 2.5000
04:25 2.5 2.5 100 254 1.9 3.1 1007.5 0.5050 2.6000
04:35 2.5 2.5 100 248 2.2 3.3 1007.5 0.5050 2.7000
04:45 2.6 2.6 100 251 1.9 3.3 1007.4 0.6060 2.9000
04:56 2.6 2.6 100 254 2.2 3.9 1007.6 0.6060 2.9000
05:05 2.6 2.6 100 251 2.2 3.3 1007.7 0.6060 3.0000
05:15 2.6 2.6 100 250 1.7 2.5 1007.7 0.6060 3.1000
05:25 2.5 2.5 100 251 1.9 3.3 1007.7 0.6060 3.2000
05:36 2.5 2.5 100 251 2.2 3.3 1007.5 0.6060 3.3000
05:46 2.5 2.5 100 247 1.7 3.3 1007.5 0.6060 3.5000
05:56 2.5 2.5 100 253 1.7 2.5 1007.6 0.6060 3.5000
06:06 2.5 2.5 100 257 2.2 3.3 1007.7 0.6060 3.6000
06:16 2.5 2.5 100 257 2.5 3.9 1007.7 0.5050 3.7000
06:26 2.6 2.6 100 254 2.2 3.1 1007.7 0.6060 3.9000
06:36 2.6 2.6 100 254 2.2 3.3 1007.7 0.5050 4.0000
06:47 2.6 2.6 100 252 2.2 3.1 1007.7 0.7070 4.2000
06:56 2.6 2.6 100 254 2.2 3.3 1007.7 0.7070 4.3000
07:06 2.5 2.5 100 254 2.2 3.1 1007.8 0.7070 4.4000
07:17 2.5 2.5 100 252 1.9 3.1 1007.7 0.6060 4.5000
07:27 2.5 2.5 100 248 1.9 3.1 1007.7 0.6060 4.6000
07:37 2.5 2.5 100 256 2.2 3.3 1007.6 0.6060 4.7000
07:47 2.5 2.5 100 256 2.2 3.3 1007.6 0.5050 4.8000
07:57 2.5 2.5 100 251 2.2 3.1 1007.6 0.6060 5.1000
08:07 2.6 2.6 100 246 1.7 3.1 1007.8 0.7070 5.2000
08:17 2.6 2.6 100 250 1.9 3.1 1008 0.6060 5.3000
08:27 2.6 2.6 100 257 2.2 3.9 1008 0.7070 5.4000
08:37 2.6 2.6 100 249 2.2 3.3 1008.1 0.7070 5.6000
08:47 2.6 2.6 100 247 1.9 3.3 1008 0.7070 5.7000
08:57 2.6 2.6 100 250 2.2 4.4 1008.1 0.8080 5.9000
09:08 2.6 2.6 100 251 2.2 3.3 1008.2 0.8080 6.0000
09:18 2.7 2.7 100 251 2.2 3.3 1008.5 0.9090 6.2000
09:27 2.7 2.7 100 255 2.5 3.9 1008.9 0.8080 6.3000
09:38 2.8 2.8 100 247 1.7 3.1 1008.7 0.9090 6.5000
09:48 2.9 2.9 100 246 1.7 2.8 1008.8 0.9090 6.7000
09:58 3 3 100 253 1.9 3.3 1008.9 1.1110 7.0000
10:08 3.1 3.1 100 255 2.5 4.4 1009 1.1110 7.2000
10:18 3.1 3 99 255 2.5 3.3 1009 1.1110 7.4000
10:28 3.1 3 99 242 1.7 3.1 1009.1 1.2120 7.6000
10:38 3.1 3 99 241 1.9 3.1 1009.1 1.3130 7.9000
10:48 3.1 3 99 244 1.9 3.3 1009.2 1.2120 8.1000
10:59 3.1 3 99 239 1.7 2.8 1009.3 1.3130 8.4000
11:08 3.2 3.1 99 235 1.4 2.2 1009.3 1.3130 8.6000
11:18 3.4 3.3 99 238 1.7 2.8 1009.5 1.3130 8.8000
11:29 3.5 3.4 99 230 0.8 2.5 1009.5 1.2120 8.9000
11:39 3.7 3.6 99 228 0.8 2.2 1009.5 1.1110 9.1000
11:49 3.8 3.5 98 227 0.6 1.7 1009.5 1.1110 9.4000
11:59 4 3.7 98 270 0.6 1.9 1009.3 1.1110 9.6000
12:09 4.1 3.8 98 0.3 1.7 1009.6 1.2120 9.9000
12:19 4.3 3.9 97 90 0.3 0.8 1009.5 1.1110 9.9000
12:29 4.4 4 97 90 0.6 1.9 1009.5 1.0100 10.1000
12:40 4.5 3.9 96 75 0.6 1.9 1009.6 1.1110 10.3000
12:49 4.5 3.9 96 65 0.6 1.4 1009.7 0.9090 10.4000
12:59 4.5 3.8 95 78 0.8 1.7 1009.7 0.8080 10.6000
13:09 4.5 3.8 95 68 0.8 1.9 1009.7 0.9090 10.8000
13:20 4.5 3.8 95 70 0.8 1.9 1009.8 1.0100 11.0000
13:30 4.6 3.9 95 90 0.6 1.7 1009.7 1.0100 11.2000
13:39 4.9 4.2 95 109 0.6 1.4 1009.6 1.2120 11.5000
13:50 5.1 4.2 94 206 0.3 0.8 1009.7 1.3130 11.8000
14:00 5.3 4.3 93 73 0.8 2.2 1009.7 1.3130 12.0000
14:10 5.3 4.1 92 90 0.6 1.9 1009.7 1.2120 12.1000
14:20 5.3 4.1 92 90 0.6 1.7 1009.7 1.1110 12.2000
14:30 5.3 4.1 92 90 0.6 1.9 1009.7 0.9090 12.3000
14:40 5.5 4.3 92 90 0.6 1.9 1009.7 0.6060 12.3000
14:50 5.6 4.4 92 90 0.6 1.7 1009.7 0.4040 12.3000
15:01 5.7 4.3 91 90 0.3 1.4 1009.7 0.2020 12.3000
15:11 5.9 4.2 89 108 0.6 1.4 1009.6 0.1010 12.3000
15:20 5.9 4.1 88 90 0.3 1.9 1009.6 0.0000 12.3000
15:30 6.1 4.4 89 90 0.6 1.7 1009.7 0.0000 12.3000
15:41 6.2 4.4 88 90 0.6 1.4 1009.6 0.0000 12.3000
15:51 6.2 4.4 88 68 0.8 1.9 1009.7 0.0000 12.3000
16:00 6.2 4.4 88 90 0.3 1.4 1009.8 0.0000 12.3000
16:11 6.1 4.1 87 90 0.3 0.8 1009.7 0.0000 12.3000
16:21 6.1 4.1 87 70 0.6 1.9 1009.6 0.0000 12.3000
16:31 6.2 4.2 87 65 1.4 2.5 1009.6 0.0000 12.3000
16:41 6.3 4.3 87 90 0.6 1.9 1009.6 0.0000 12.3000
16:51 6.4 4.4 87 90 0.8 2.2 1009.6 0.0000 12.3000
17:01 6.4 4.4 87 67 0.6 2.2 1009.7 0.0000 12.3000
17:11 6.4 4.6 88 73 0.6 1.7 1009.7 0.0000 12.3000
17:22 6.2 4.4 88 70 0.6 1.4 1009.7 0.0000 12.3000
17:32 6.2 4.4 88 236 0.3 0.8 1009.8 0.0000 12.3000
17:41 6.1 4.1 87 259 0.8 2.2 1009.8 0.0000 12.3000
17:51 6 4 87 270 0.6 1.7 1009.9 0.0000 12.3000
18:02 6 4 87 254 0.6 1.7 1010 0.0000 12.3000
18:12 5.9 4.1 88 270 0.3 1.7 1010 0.0000 12.3000
18:22 5.9 4.4 90 270 0.3 0.6 1009.9 0.0000 12.3000
18:32 5.8 4.4 91 270 0.3 0.8 1009.9 0.0000 12.3000
18:42 5.7 4.3 91 270 0.3 1.4 1010 0.0000 12.3000
18:52 5.6 4.4 92 90 0.3 0.6 1010.2 0.0000 12.3000
19:02 5.5 4.5 93 270 0.3 0.8 1010.2 0.0000 12.3000
19:13 5.4 4.4 93 270 0.3 0.8 1010.3 0.0000 12.3000
19:22 5.2 4.2 93 143 0.3 0.6 1010.3 0.0000 12.3000
19:32 5.2 4.3 94 270 0.3 0.6 1010.4 0.0000 12.3000
19:43 5.1 4.2 94 161 0.3 0.6 1010.4 0.0000 12.3000
19:53 5 4.3 95 180 0.3 0.6 1010.5 0.0000 12.3000
20:03 5 4.3 95 231 0.3 0.8 1010.5 0.0000 12.3000
20:13 4.8 4.1 95 90 0.3 0.8 1010.6 0.0000 12.3000
20:23 4.7 4 95 174 0.3 0.6 1010.6 0.0000 12.3000
20:33 4.7 4.1 96 225 0.3 0.6 1010.6 0.0000 12.3000
20:43 4.6 4 96 135 0.3 0.8 1010.6 0.0000 12.3000
20:53 4.5 3.9 96 237 0.3 0.8 1010.6 0.0000 12.3000
21:04 4.5 4.1 97 203 0.3 0.6 1010.5 0.0000 12.3000
21:13 4.5 4.1 97 270 0.3 0.8 1010.5 0.0000 12.3000
21:23 4.4 3.8 96 173 0.3 0.6 1010.5 0.0000 12.3000
21:34 4.3 3.9 97 161 0.3 0.6 1010.5 0.0000 12.3000
21:44 4.2 3.8 97 141 0.3 0.6 1010.6 0.0000 12.3000
21:54 4.2 3.8 97 270 0.6 1.4 1010.6 0.0000 12.3000
22:04 4.2 3.8 97 270 0.3 0.8 1010.6 0.0000 12.3000
22:14 4.2 3.8 97 198 0.3 0.8 1010.6 0.0000 12.3000
22:24 4.1 3.7 97 195 0.3 0.6 1010.6 0.0000 12.3000
22:34 4.1 3.8 98 168 0.3 0.6 1010.6 0.0000 12.3000
22:45 4.1 3.8 98 198 0.3 0.6 1010.5 0.0000 12.3000
22:54 3.9 3.6 98 180 0.3 0.6 1010.6 0.0000 12.3000
23:04 3.8 3.5 98 126 0.3 0.8 1010.6 0.0000 12.3000
23:14 3.8 3.5 98 194 0.3 0.6 1010.6 0.0000 12.3000
23:25 3.8 3.5 98 270 0.3 0.8 1010.6 0.0000 12.3000
23:35 3.8 3.5 98 188 0.3 0.6 1010.7 0.0000 12.3000
23:44 3.7 3.4 98 180 0.3 0.6 1010.8 0.0000 12.3000
23:55 3.6 3.3 98 241 0.6 1.7 1010.8 0.0000

TAGESSTATISTIK

2020-09-26
TEMPERATUR
MITTEL
3.9
MAXIMUM
6.4
16:51
MINIMUM
2.5
00:13
LUFTDRUCK
MITTEL
1009.1
MAXIMUM
1010.8
23:44
MINIMUM
1007.4
03:14
TAUPUNKT
MITTEL
3.4
MAXIMUM
4.6
17:11
MINIMUM
2.5
00:13
FEUCHTIGKEIT
MITTEL
97
MAXIMUM
100
00:02
MINIMUM
87
16:11
WINDSTÄRKE
MITTEL
1.2
MAXIMUM
2.8
00:43
WINDBÖE
MITTEL
2.2
MAXIMUM
4.4
01:03
WINDRICHTUNG
VORHERRSCHENDE
W
47.9%
N
0.0
NO
2.1
O
20.4
SO
2.8
S
9.9
SW
16.2
W
47.9
NW
0.0
NIEDERSCHLAG
REGEN STUNDE
1.3
REGEN TAG
12.3
TEMPERATUR (°C)
MINIMUM
2.5
MAXIMUM
6.4
MITTEL
3.9
LUFTDRUCK (hpa)
MINIMUM
1007.4
MAXIMUM
1010.8
MITTEL
1009.1
MESSGERÄT